Wonder Lake, Indiana
Current Conditions -  °F | °C
As of 3:53 AM on Sunday 26 Oct 2014 (Local Time) from KHUF Reporting Station
Clear Clear  
Wind Chill: 51°   Ceiling: Unl
Heat Index: 51°   Visibility: 10mi
Dew Point: 39°   Wind: 3mph
Humidity: 63%   Direction: 340°NNW
Pressure: 30.01"   Gusts: NA
Location:  39.3587°N, 87.4056°W
Report Text: KHUF 260753Z 34003KT 10SM CLR 11/04 A3001 RMK AO2 SLP161 T01060039
Loading
Personal Weather Stations






























Interactive Weather Map
Tropical Storm Tracking
New forecast layout! Learn more

10-Day Weather Forecast

Advertisements
Track Severe Weather on mobile